sensor_id;sensor_type;location;lat;lon;timestamp;P1;durP1;ratioP1;P2;durP2;ratioP2
77800;SDS011;66991;50.058;14.454;2024-01-06T00:01:35;20.00;;;8.80;;
77800;SDS011;66991;50.058;14.454;2024-01-06T00:04:01;22.75;;;9.02;;
77800;SDS011;66991;50.058;14.454;2024-01-06T00:06:26;19.17;;;9.65;;
77800;SDS011;66991;50.058;14.454;2024-01-06T00:08:51;19.70;;;9.02;;
77800;SDS011;66991;50.058;14.454;2024-01-06T00:11:22;19.23;;;9.45;;
77800;SDS011;66991;50.058;14.454;2024-01-06T00:13:48;22.30;;;8.70;;
77800;SDS011;66991;50.058;14.454;2024-01-06T00:16:16;15.52;;;8.15;;
77800;SDS011;66991;50.058;14.454;2024-01-06T00:18:42;20.08;;;8.82;;
77800;SDS011;66991;50.058;14.454;2024-01-06T00:21:08;18.13;;;8.85;;
77800;SDS011;66991;50.058;14.454;2024-01-06T00:23:33;17.20;;;9.75;;
77800;SDS011;66991;50.058;14.454;2024-01-06T00:25:59;19.15;;;9.20;;
77800;SDS011;66991;50.058;14.454;2024-01-06T00:28:24;19.30;;;8.57;;
77800;SDS011;66991;50.058;14.454;2024-01-06T00:30:49;19.05;;;9.43;;
77800;SDS011;66991;50.058;14.454;2024-01-06T00:33:14;21.95;;;9.68;;
77800;SDS011;66991;50.058;14.454;2024-01-06T00:35:40;19.23;;;9.05;;
77800;SDS011;66991;50.058;14.454;2024-01-06T00:38:05;17.98;;;9.25;;
77800;SDS011;66991;50.058;14.454;2024-01-06T00:40:31;19.73;;;10.43;;
77800;SDS011;66991;50.058;14.454;2024-01-06T00:42:57;16.90;;;8.90;;
77800;SDS011;66991;50.058;14.454;2024-01-06T00:45:23;15.57;;;8.88;;
77800;SDS011;66991;50.058;14.454;2024-01-06T00:47:48;17.35;;;9.38;;
77800;SDS011;66991;50.058;14.454;2024-01-06T00:50:13;19.20;;;9.05;;
77800;SDS011;66991;50.058;14.454;2024-01-06T00:52:39;20.83;;;8.93;;
77800;SDS011;66991;50.058;14.454;2024-01-06T00:55:04;19.08;;;9.65;;
77800;SDS011;66991;50.058;14.454;2024-01-06T00:57:30;18.98;;;8.80;;
77800;SDS011;66991;50.058;14.454;2024-01-06T00:59:55;18.60;;;9.00;;
77800;SDS011;66991;50.058;14.454;2024-01-06T01:02:21;18.10;;;9.25;;
77800;SDS011;66991;50.058;14.454;2024-01-06T01:04:47;18.55;;;8.50;;
77800;SDS011;66991;50.058;14.454;2024-01-06T01:07:12;17.58;;;8.77;;
77800;SDS011;66991;50.058;14.454;2024-01-06T01:09:37;18.70;;;8.98;;
77800;SDS011;66991;50.058;14.454;2024-01-06T01:12:03;15.13;;;7.82;;
77800;SDS011;66991;50.058;14.454;2024-01-06T01:14:28;18.35;;;8.00;;
77800;SDS011;66991;50.058;14.454;2024-01-06T01:16:53;16.80;;;8.45;;
77800;SDS011;66991;50.058;14.454;2024-01-06T01:19:19;21.73;;;9.75;;
77800;SDS011;66991;50.058;14.454;2024-01-06T01:21:44;16.85;;;9.40;;
77800;SDS011;66991;50.058;14.454;2024-01-06T01:24:09;18.55;;;9.15;;
77800;SDS011;66991;50.058;14.454;2024-01-06T01:26:35;18.20;;;9.18;;
77800;SDS011;66991;50.058;14.454;2024-01-06T01:29:00;18.67;;;9.15;;
77800;SDS011;66991;50.058;14.454;2024-01-06T01:31:25;15.35;;;9.32;;
77800;SDS011;66991;50.058;14.454;2024-01-06T01:33:51;21.27;;;9.52;;
77800;SDS011;66991;50.058;14.454;2024-01-06T01:36:16;22.40;;;9.05;;
77800;SDS011;66991;50.058;14.454;2024-01-06T01:38:43;16.55;;;8.90;;
77800;SDS011;66991;50.058;14.454;2024-01-06T01:41:08;18.70;;;8.63;;
77800;SDS011;66991;50.058;14.454;2024-01-06T01:43:33;19.92;;;9.15;;
77800;SDS011;66991;50.058;14.454;2024-01-06T01:45:59;20.25;;;8.73;;
77800;SDS011;66991;50.058;14.454;2024-01-06T01:48:25;17.95;;;9.45;;
77800;SDS011;66991;50.058;14.454;2024-01-06T01:50:50;18.33;;;9.40;;
77800;SDS011;66991;50.058;14.454;2024-01-06T01:53:16;18.13;;;8.88;;
77800;SDS011;66991;50.058;14.454;2024-01-06T01:55:42;14.82;;;8.68;;
77800;SDS011;66991;50.058;14.454;2024-01-06T01:58:09;18.20;;;10.25;;
77800;SDS011;66991;50.058;14.454;2024-01-06T02:00:35;24.70;;;10.35;;
77800;SDS011;66991;50.058;14.454;2024-01-06T02:03:01;21.77;;;10.43;;
77800;SDS011;66991;50.058;14.454;2024-01-06T02:05:28;20.25;;;9.35;;
77800;SDS011;66991;50.058;14.454;2024-01-06T02:07:53;24.02;;;10.55;;
77800;SDS011;66991;50.058;14.454;2024-01-06T02:10:19;23.50;;;11.50;;
77800;SDS011;66991;50.058;14.454;2024-01-06T02:12:44;23.58;;;11.25;;
77800;SDS011;66991;50.058;14.454;2024-01-06T02:15:09;25.67;;;12.27;;
77800;SDS011;66991;50.058;14.454;2024-01-06T02:17:35;23.75;;;12.25;;
77800;SDS011;66991;50.058;14.454;2024-01-06T02:20:00;22.38;;;10.70;;
77800;SDS011;66991;50.058;14.454;2024-01-06T02:22:26;24.70;;;11.63;;
77800;SDS011;66991;50.058;14.454;2024-01-06T02:24:51;23.27;;;11.75;;
77800;SDS011;66991;50.058;14.454;2024-01-06T02:27:16;22.45;;;11.25;;
77800;SDS011;66991;50.058;14.454;2024-01-06T02:29:41;19.13;;;10.63;;
77800;SDS011;66991;50.058;14.454;2024-01-06T02:32:07;19.25;;;9.57;;
77800;SDS011;66991;50.058;14.454;2024-01-06T02:34:32;22.92;;;11.00;;
77800;SDS011;66991;50.058;14.454;2024-01-06T02:36:58;22.98;;;10.95;;
77800;SDS011;66991;50.058;14.454;2024-01-06T02:39:23;20.15;;;9.68;;
77800;SDS011;66991;50.058;14.454;2024-01-06T02:41:49;23.25;;;10.45;;
77800;SDS011;66991;50.058;14.454;2024-01-06T02:44:14;23.58;;;10.73;;
77800;SDS011;66991;50.058;14.454;2024-01-06T02:46:39;20.27;;;10.27;;
77800;SDS011;66991;50.058;14.454;2024-01-06T02:49:05;18.77;;;9.70;;
77800;SDS011;66991;50.058;14.454;2024-01-06T02:51:30;23.10;;;8.85;;
77800;SDS011;66991;50.058;14.454;2024-01-06T02:53:56;17.10;;;9.40;;
77800;SDS011;66991;50.058;14.454;2024-01-06T02:56:21;19.13;;;9.40;;
77800;SDS011;66991;50.058;14.454;2024-01-06T02:58:46;18.67;;;8.65;;
77800;SDS011;66991;50.058;14.454;2024-01-06T03:01:12;19.23;;;10.02;;
77800;SDS011;66991;50.058;14.454;2024-01-06T03:03:37;20.35;;;8.93;;
77800;SDS011;66991;50.058;14.454;2024-01-06T03:06:03;19.83;;;10.65;;
77800;SDS011;66991;50.058;14.454;2024-01-06T03:08:28;17.52;;;9.65;;
77800;SDS011;66991;50.058;14.454;2024-01-06T03:10:54;20.48;;;9.77;;
77800;SDS011;66991;50.058;14.454;2024-01-06T03:13:19;26.65;;;10.50;;
77800;SDS011;66991;50.058;14.454;2024-01-06T03:15:45;18.55;;;10.02;;
77800;SDS011;66991;50.058;14.454;2024-01-06T03:18:10;21.95;;;10.52;;
77800;SDS011;66991;50.058;14.454;2024-01-06T03:20:36;26.17;;;11.88;;
77800;SDS011;66991;50.058;14.454;2024-01-06T03:23:01;18.48;;;10.45;;
77800;SDS011;66991;50.058;14.454;2024-01-06T03:25:26;24.27;;;10.73;;
77800;SDS011;66991;50.058;14.454;2024-01-06T03:27:52;23.40;;;11.40;;
77800;SDS011;66991;50.058;14.454;2024-01-06T03:30:17;21.17;;;10.75;;
77800;SDS011;66991;50.058;14.454;2024-01-06T03:32:42;21.83;;;11.10;;
77800;SDS011;66991;50.058;14.454;2024-01-06T03:35:08;19.48;;;10.60;;
77800;SDS011;66991;50.058;14.454;2024-01-06T03:37:33;18.05;;;10.63;;
77800;SDS011;66991;50.058;14.454;2024-01-06T03:39:58;24.92;;;11.82;;
77800;SDS011;66991;50.058;14.454;2024-01-06T03:42:24;20.70;;;10.55;;
77800;SDS011;66991;50.058;14.454;2024-01-06T03:44:49;22.17;;;11.40;;
77800;SDS011;66991;50.058;14.454;2024-01-06T03:47:14;23.20;;;10.20;;
77800;SDS011;66991;50.058;14.454;2024-01-06T03:49:40;20.63;;;11.00;;
77800;SDS011;66991;50.058;14.454;2024-01-06T03:52:05;25.15;;;11.00;;
77800;SDS011;66991;50.058;14.454;2024-01-06T03:54:30;16.08;;;9.48;;
77800;SDS011;66991;50.058;14.454;2024-01-06T03:56:56;17.10;;;9.55;;
77800;SDS011;66991;50.058;14.454;2024-01-06T03:59:21;22.75;;;10.15;;
77800;SDS011;66991;50.058;14.454;2024-01-06T04:01:46;24.90;;;9.68;;
77800;SDS011;66991;50.058;14.454;2024-01-06T04:04:12;22.42;;;10.05;;
77800;SDS011;66991;50.058;14.454;2024-01-06T04:06:37;18.20;;;9.63;;
77800;SDS011;66991;50.058;14.454;2024-01-06T04:09:03;21.27;;;10.55;;
77800;SDS011;66991;50.058;14.454;2024-01-06T04:11:28;20.05;;;10.02;;
77800;SDS011;66991;50.058;14.454;2024-01-06T04:13:53;18.42;;;11.02;;
77800;SDS011;66991;50.058;14.454;2024-01-06T04:16:19;22.23;;;8.85;;
77800;SDS011;66991;50.058;14.454;2024-01-06T04:18:44;20.92;;;10.20;;
77800;SDS011;66991;50.058;14.454;2024-01-06T04:21:10;20.83;;;9.20;;
77800;SDS011;66991;50.058;14.454;2024-01-06T04:23:36;20.05;;;10.55;;
77800;SDS011;66991;50.058;14.454;2024-01-06T04:26:01;17.63;;;9.88;;
77800;SDS011;66991;50.058;14.454;2024-01-06T04:28:26;20.88;;;10.18;;
77800;SDS011;66991;50.058;14.454;2024-01-06T04:30:52;17.92;;;10.23;;
77800;SDS011;66991;50.058;14.454;2024-01-06T04:33:18;22.00;;;9.95;;
77800;SDS011;66991;50.058;14.454;2024-01-06T04:35:43;18.50;;;10.00;;
77800;SDS011;66991;50.058;14.454;2024-01-06T04:38:08;19.90;;;11.07;;
77800;SDS011;66991;50.058;14.454;2024-01-06T04:40:34;21.63;;;9.57;;
77800;SDS011;66991;50.058;14.454;2024-01-06T04:42:59;21.70;;;10.57;;
77800;SDS011;66991;50.058;14.454;2024-01-06T04:45:24;21.50;;;9.98;;
77800;SDS011;66991;50.058;14.454;2024-01-06T04:47:50;18.38;;;8.88;;
77800;SDS011;66991;50.058;14.454;2024-01-06T04:50:16;20.27;;;10.88;;
77800;SDS011;66991;50.058;14.454;2024-01-06T04:52:42;17.40;;;9.48;;
77800;SDS011;66991;50.058;14.454;2024-01-06T04:55:07;21.15;;;10.60;;
77800;SDS011;66991;50.058;14.454;2024-01-06T04:57:33;19.77;;;9.68;;
77800;SDS011;66991;50.058;14.454;2024-01-06T04:59:58;22.20;;;9.30;;
77800;SDS011;66991;50.058;14.454;2024-01-06T05:02:24;25.80;;;11.50;;
77800;SDS011;66991;50.058;14.454;2024-01-06T05:04:50;21.70;;;10.93;;
77800;SDS011;66991;50.058;14.454;2024-01-06T05:07:15;19.80;;;10.80;;
77800;SDS011;66991;50.058;14.454;2024-01-06T05:09:40;23.67;;;10.73;;
77800;SDS011;66991;50.058;14.454;2024-01-06T05:12:06;17.58;;;9.57;;
77800;SDS011;66991;50.058;14.454;2024-01-06T05:14:31;22.33;;;11.80;;
77800;SDS011;66991;50.058;14.454;2024-01-06T05:16:57;23.45;;;11.07;;
77800;SDS011;66991;50.058;14.454;2024-01-06T05:19:22;27.55;;;11.98;;
77800;SDS011;66991;50.058;14.454;2024-01-06T05:21:47;23.52;;;11.07;;
77800;SDS011;66991;50.058;14.454;2024-01-06T05:24:13;24.30;;;10.65;;
77800;SDS011;66991;50.058;14.454;2024-01-06T05:26:38;22.85;;;10.52;;
77800;SDS011;66991;50.058;14.454;2024-01-06T05:29:03;18.10;;;9.90;;
77800;SDS011;66991;50.058;14.454;2024-01-06T05:31:29;25.67;;;12.13;;
77800;SDS011;66991;50.058;14.454;2024-01-06T05:33:54;19.55;;;10.52;;
77800;SDS011;66991;50.058;14.454;2024-01-06T05:36:19;23.75;;;12.02;;
77800;SDS011;66991;50.058;14.454;2024-01-06T05:38:45;24.52;;;12.02;;
77800;SDS011;66991;50.058;14.454;2024-01-06T05:41:10;27.92;;;13.50;;
77800;SDS011;66991;50.058;14.454;2024-01-06T05:43:36;25.08;;;12.02;;
77800;SDS011;66991;50.058;14.454;2024-01-06T05:46:01;22.73;;;12.00;;
77800;SDS011;66991;50.058;14.454;2024-01-06T05:48:26;27.20;;;12.73;;
77800;SDS011;66991;50.058;14.454;2024-01-06T05:50:52;24.20;;;11.48;;
77800;SDS011;66991;50.058;14.454;2024-01-06T05:53:17;27.58;;;12.68;;
77800;SDS011;66991;50.058;14.454;2024-01-06T05:55:43;30.55;;;13.38;;
77800;SDS011;66991;50.058;14.454;2024-01-06T05:58:09;29.05;;;11.90;;
77800;SDS011;66991;50.058;14.454;2024-01-06T06:00:34;26.67;;;11.75;;
77800;SDS011;66991;50.058;14.454;2024-01-06T06:02:59;26.50;;;12.98;;
77800;SDS011;66991;50.058;14.454;2024-01-06T06:05:24;24.88;;;11.60;;
77800;SDS011;66991;50.058;14.454;2024-01-06T06:07:51;24.63;;;11.40;;
77800;SDS011;66991;50.058;14.454;2024-01-06T06:10:16;23.92;;;11.18;;
77800;SDS011;66991;50.058;14.454;2024-01-06T06:12:43;28.33;;;12.20;;
77800;SDS011;66991;50.058;14.454;2024-01-06T06:15:09;28.45;;;11.43;;
77800;SDS011;66991;50.058;14.454;2024-01-06T06:17:35;28.50;;;11.77;;
77800;SDS011;66991;50.058;14.454;2024-01-06T06:20:00;26.08;;;12.27;;
77800;SDS011;66991;50.058;14.454;2024-01-06T06:22:26;25.40;;;11.20;;
77800;SDS011;66991;50.058;14.454;2024-01-06T06:24:55;23.48;;;11.38;;
77800;SDS011;66991;50.058;14.454;2024-01-06T06:27:23;23.70;;;10.98;;
77800;SDS011;66991;50.058;14.454;2024-01-06T06:29:49;22.88;;;10.85;;
77800;SDS011;66991;50.058;14.454;2024-01-06T06:32:14;25.20;;;11.25;;
77800;SDS011;66991;50.058;14.454;2024-01-06T06:34:39;24.50;;;10.15;;
77800;SDS011;66991;50.058;14.454;2024-01-06T06:37:05;24.45;;;9.70;;
77800;SDS011;66991;50.058;14.454;2024-01-06T06:39:30;24.73;;;10.35;;
77800;SDS011;66991;50.058;14.454;2024-01-06T06:41:57;25.48;;;10.63;;
77800;SDS011;66991;50.058;14.454;2024-01-06T06:44:22;27.38;;;11.45;;
77800;SDS011;66991;50.058;14.454;2024-01-06T06:46:48;22.33;;;10.20;;
77800;SDS011;66991;50.058;14.454;2024-01-06T06:49:13;23.15;;;9.30;;
77800;SDS011;66991;50.058;14.454;2024-01-06T06:51:39;20.13;;;9.25;;
77800;SDS011;66991;50.058;14.454;2024-01-06T06:54:11;21.02;;;10.02;;
77800;SDS011;66991;50.058;14.454;2024-01-06T06:56:37;21.52;;;8.73;;
77800;SDS011;66991;50.058;14.454;2024-01-06T06:59:02;16.25;;;8.23;;
77800;SDS011;66991;50.058;14.454;2024-01-06T07:01:28;19.50;;;8.68;;
77800;SDS011;66991;50.058;14.454;2024-01-06T07:03:53;17.90;;;8.52;;
77800;SDS011;66991;50.058;14.454;2024-01-06T07:06:18;19.65;;;9.05;;
77800;SDS011;66991;50.058;14.454;2024-01-06T07:08:44;20.75;;;8.27;;
77800;SDS011;66991;50.058;14.454;2024-01-06T07:11:09;17.80;;;8.32;;
77800;SDS011;66991;50.058;14.454;2024-01-06T07:13:36;22.42;;;8.38;;
77800;SDS011;66991;50.058;14.454;2024-01-06T07:16:01;19.27;;;8.98;;
77800;SDS011;66991;50.058;14.454;2024-01-06T07:18:27;19.67;;;8.82;;
77800;SDS011;66991;50.058;14.454;2024-01-06T07:20:52;20.52;;;8.27;;
77800;SDS011;66991;50.058;14.454;2024-01-06T07:23:17;16.85;;;8.38;;
77800;SDS011;66991;50.058;14.454;2024-01-06T07:25:43;21.65;;;8.18;;
77800;SDS011;66991;50.058;14.454;2024-01-06T07:28:08;26.17;;;9.13;;
77800;SDS011;66991;50.058;14.454;2024-01-06T07:30:34;22.48;;;9.63;;
77800;SDS011;66991;50.058;14.454;2024-01-06T07:32:59;19.90;;;9.10;;
77800;SDS011;66991;50.058;14.454;2024-01-06T07:35:25;22.58;;;10.95;;
77800;SDS011;66991;50.058;14.454;2024-01-06T07:37:50;25.13;;;11.13;;
77800;SDS011;66991;50.058;14.454;2024-01-06T07:40:16;25.38;;;10.35;;
77800;SDS011;66991;50.058;14.454;2024-01-06T07:42:42;19.85;;;9.32;;
77800;SDS011;66991;50.058;14.454;2024-01-06T07:45:08;23.70;;;10.98;;
77800;SDS011;66991;50.058;14.454;2024-01-06T07:47:34;25.13;;;10.10;;
77800;SDS011;66991;50.058;14.454;2024-01-06T07:49:59;25.75;;;10.73;;
77800;SDS011;66991;50.058;14.454;2024-01-06T07:52:24;30.38;;;11.85;;
77800;SDS011;66991;50.058;14.454;2024-01-06T07:54:50;27.70;;;11.18;;
77800;SDS011;66991;50.058;14.454;2024-01-06T07:57:15;26.50;;;11.18;;
77800;SDS011;66991;50.058;14.454;2024-01-06T07:59:41;29.05;;;11.95;;
77800;SDS011;66991;50.058;14.454;2024-01-06T08:02:06;28.42;;;11.38;;
77800;SDS011;66991;50.058;14.454;2024-01-06T08:04:32;23.85;;;11.07;;
77800;SDS011;66991;50.058;14.454;2024-01-06T08:06:57;29.25;;;11.52;;
77800;SDS011;66991;50.058;14.454;2024-01-06T08:09:22;24.90;;;9.85;;
77800;SDS011;66991;50.058;14.454;2024-01-06T08:11:50;27.95;;;11.10;;
77800;SDS011;66991;50.058;14.454;2024-01-06T08:14:16;26.92;;;9.95;;
77800;SDS011;66991;50.058;14.454;2024-01-06T08:16:42;29.67;;;10.65;;
77800;SDS011;66991;50.058;14.454;2024-01-06T08:19:08;31.58;;;11.65;;
77800;SDS011;66991;50.058;14.454;2024-01-06T08:21:33;28.80;;;11.85;;
77800;SDS011;66991;50.058;14.454;2024-01-06T08:23:59;27.38;;;10.77;;
77800;SDS011;66991;50.058;14.454;2024-01-06T08:26:25;28.35;;;12.48;;
77800;SDS011;66991;50.058;14.454;2024-01-06T08:28:50;31.52;;;13.40;;
77800;SDS011;66991;50.058;14.454;2024-01-06T08:31:16;32.78;;;12.38;;
77800;SDS011;66991;50.058;14.454;2024-01-06T08:33:41;39.25;;;13.45;;
77800;SDS011;66991;50.058;14.454;2024-01-06T08:36:07;32.47;;;12.18;;
77800;SDS011;66991;50.058;14.454;2024-01-06T08:38:32;32.35;;;12.77;;
77800;SDS011;66991;50.058;14.454;2024-01-06T08:40:57;30.83;;;11.65;;
77800;SDS011;66991;50.058;14.454;2024-01-06T08:43:23;41.58;;;13.50;;
77800;SDS011;66991;50.058;14.454;2024-01-06T08:45:48;38.40;;;12.63;;
77800;SDS011;66991;50.058;14.454;2024-01-06T08:48:15;31.92;;;12.57;;
77800;SDS011;66991;50.058;14.454;2024-01-06T08:50:41;35.08;;;12.85;;
77800;SDS011;66991;50.058;14.454;2024-01-06T08:53:06;40.95;;;14.32;;
77800;SDS011;66991;50.058;14.454;2024-01-06T08:55:31;33.42;;;13.43;;
77800;SDS011;66991;50.058;14.454;2024-01-06T08:57:57;45.35;;;14.52;;
77800;SDS011;66991;50.058;14.454;2024-01-06T09:00:22;46.47;;;16.05;;
77800;SDS011;66991;50.058;14.454;2024-01-06T09:02:47;42.42;;;13.63;;
77800;SDS011;66991;50.058;14.454;2024-01-06T09:05:14;42.10;;;15.27;;
77800;SDS011;66991;50.058;14.454;2024-01-06T09:07:39;33.80;;;13.35;;
77800;SDS011;66991;50.058;14.454;2024-01-06T09:10:06;40.45;;;14.10;;
77800;SDS011;66991;50.058;14.454;2024-01-06T09:12:32;42.83;;;16.15;;
77800;SDS011;66991;50.058;14.454;2024-01-06T09:14:57;41.13;;;16.00;;
77800;SDS011;66991;50.058;14.454;2024-01-06T09:17:22;51.10;;;17.23;;
77800;SDS011;66991;50.058;14.454;2024-01-06T09:19:48;50.17;;;17.40;;
77800;SDS011;66991;50.058;14.454;2024-01-06T09:22:14;44.55;;;15.32;;
77800;SDS011;66991;50.058;14.454;2024-01-06T09:24:39;46.75;;;17.85;;
77800;SDS011;66991;50.058;14.454;2024-01-06T09:27:05;41.70;;;17.90;;
77800;SDS011;66991;50.058;14.454;2024-01-06T09:29:30;42.03;;;17.17;;
77800;SDS011;66991;50.058;14.454;2024-01-06T09:31:56;38.25;;;16.10;;
77800;SDS011;66991;50.058;14.454;2024-01-06T09:34:21;36.47;;;16.00;;
77800;SDS011;66991;50.058;14.454;2024-01-06T09:36:46;46.20;;;17.15;;
77800;SDS011;66991;50.058;14.454;2024-01-06T09:39:11;41.22;;;16.15;;
77800;SDS011;66991;50.058;14.454;2024-01-06T09:41:37;30.77;;;14.95;;
77800;SDS011;66991;50.058;14.454;2024-01-06T09:44:02;35.60;;;16.55;;
77800;SDS011;66991;50.058;14.454;2024-01-06T09:46:28;44.05;;;17.15;;
77800;SDS011;66991;50.058;14.454;2024-01-06T09:48:56;42.92;;;17.15;;
77800;SDS011;66991;50.058;14.454;2024-01-06T09:51:22;42.70;;;17.08;;
77800;SDS011;66991;50.058;14.454;2024-01-06T09:53:49;43.97;;;18.40;;
77800;SDS011;66991;50.058;14.454;2024-01-06T09:56:18;41.67;;;17.17;;
77800;SDS011;66991;50.058;14.454;2024-01-06T09:58:43;41.47;;;17.92;;
77800;SDS011;66991;50.058;14.454;2024-01-06T10:01:09;38.50;;;16.00;;
77800;SDS011;66991;50.058;14.454;2024-01-06T10:03:36;37.80;;;16.83;;
77800;SDS011;66991;50.058;14.454;2024-01-06T10:06:03;48.38;;;17.23;;
77800;SDS011;66991;50.058;14.454;2024-01-06T10:08:29;39.55;;;16.02;;
77800;SDS011;66991;50.058;14.454;2024-01-06T10:10:55;41.47;;;17.40;;
77800;SDS011;66991;50.058;14.454;2024-01-06T10:13:20;38.78;;;16.45;;
77800;SDS011;66991;50.058;14.454;2024-01-06T10:15:45;42.95;;;15.75;;
77800;SDS011;66991;50.058;14.454;2024-01-06T10:18:11;35.65;;;15.73;;
77800;SDS011;66991;50.058;14.454;2024-01-06T10:20:37;34.28;;;14.05;;
77800;SDS011;66991;50.058;14.454;2024-01-06T10:23:06;43.50;;;17.40;;
77800;SDS011;66991;50.058;14.454;2024-01-06T10:25:31;32.88;;;15.50;;
77800;SDS011;66991;50.058;14.454;2024-01-06T10:27:57;35.85;;;16.67;;
77800;SDS011;66991;50.058;14.454;2024-01-06T10:30:22;39.83;;;17.27;;
77800;SDS011;66991;50.058;14.454;2024-01-06T10:32:49;45.25;;;18.05;;
77800;SDS011;66991;50.058;14.454;2024-01-06T10:35:15;42.72;;;19.63;;
77800;SDS011;66991;50.058;14.454;2024-01-06T10:37:41;39.63;;;18.00;;
77800;SDS011;66991;50.058;14.454;2024-01-06T10:40:13;41.05;;;17.83;;
77800;SDS011;66991;50.058;14.454;2024-01-06T10:42:43;38.47;;;17.88;;
77800;SDS011;66991;50.058;14.454;2024-01-06T10:45:10;39.92;;;17.52;;
77800;SDS011;66991;50.058;14.454;2024-01-06T10:47:37;35.90;;;16.08;;
77800;SDS011;66991;50.058;14.454;2024-01-06T10:50:03;45.75;;;15.68;;
77800;SDS011;66991;50.058;14.454;2024-01-06T10:52:29;36.58;;;16.77;;
77800;SDS011;66991;50.058;14.454;2024-01-06T10:54:55;35.72;;;16.15;;
77800;SDS011;66991;50.058;14.454;2024-01-06T10:57:21;42.60;;;17.08;;
77800;SDS011;66991;50.058;14.454;2024-01-06T10:59:51;43.97;;;16.98;;
77800;SDS011;66991;50.058;14.454;2024-01-06T11:02:17;36.63;;;16.42;;
77800;SDS011;66991;50.058;14.454;2024-01-06T11:04:44;40.70;;;17.38;;
77800;SDS011;66991;50.058;14.454;2024-01-06T11:07:10;40.65;;;17.85;;
77800;SDS011;66991;50.058;14.454;2024-01-06T11:09:37;41.90;;;17.25;;
77800;SDS011;66991;50.058;14.454;2024-01-06T11:12:05;38.72;;;17.33;;
77800;SDS011;66991;50.058;14.454;2024-01-06T11:14:35;42.80;;;16.95;;
77800;SDS011;66991;50.058;14.454;2024-01-06T11:17:02;41.20;;;17.45;;
77800;SDS011;66991;50.058;14.454;2024-01-06T11:24:43;34.70;;;16.85;;
77800;SDS011;66991;50.058;14.454;2024-01-06T11:27:16;36.20;;;15.63;;
77800;SDS011;66991;50.058;14.454;2024-01-06T11:30:03;44.38;;;17.20;;
77800;SDS011;66991;50.058;14.454;2024-01-06T11:32:32;39.70;;;16.33;;
77800;SDS011;66991;50.058;14.454;2024-01-06T11:35:05;36.97;;;16.15;;
77800;SDS011;66991;50.058;14.454;2024-01-06T11:45:26;47.10;;;20.05;;
77800;SDS011;66991;50.058;14.454;2024-01-06T11:47:59;37.40;;;16.67;;
77800;SDS011;66991;50.058;14.454;2024-01-06T11:50:26;36.47;;;15.95;;
77800;SDS011;66991;50.058;14.454;2024-01-06T11:52:52;44.60;;;17.02;;
77800;SDS011;66991;50.058;14.454;2024-01-06T11:55:18;42.95;;;17.25;;
77800;SDS011;66991;50.058;14.454;2024-01-06T11:57:44;40.60;;;16.15;;
77800;SDS011;66991;50.058;14.454;2024-01-06T12:00:10;40.05;;;16.35;;
77800;SDS011;66991;50.058;14.454;2024-01-06T12:02:36;44.55;;;17.38;;
77800;SDS011;66991;50.058;14.454;2024-01-06T12:05:02;44.55;;;17.20;;
77800;SDS011;66991;50.058;14.454;2024-01-06T12:07:27;36.50;;;16.35;;
77800;SDS011;66991;50.058;14.454;2024-01-06T12:10:02;43.88;;;15.77;;
77800;SDS011;66991;50.058;14.454;2024-01-06T12:12:28;34.05;;;14.75;;
77800;SDS011;66991;50.058;14.454;2024-01-06T12:14:53;40.50;;;15.05;;
77800;SDS011;66991;50.058;14.454;2024-01-06T12:17:19;42.58;;;16.60;;
77800;SDS011;66991;50.058;14.454;2024-01-06T12:19:46;38.83;;;16.25;;
77800;SDS011;66991;50.058;14.454;2024-01-06T12:22:12;49.85;;;17.80;;
77800;SDS011;66991;50.058;14.454;2024-01-06T12:24:39;40.47;;;16.23;;
77800;SDS011;66991;50.058;14.454;2024-01-06T12:27:06;38.70;;;14.70;;
77800;SDS011;66991;50.058;14.454;2024-01-06T12:29:32;43.08;;;17.20;;
77800;SDS011;66991;50.058;14.454;2024-01-06T12:32:01;37.83;;;15.98;;
77800;SDS011;66991;50.058;14.454;2024-01-06T12:34:26;37.38;;;14.75;;
77800;SDS011;66991;50.058;14.454;2024-01-06T12:36:52;36.55;;;15.43;;
77800;SDS011;66991;50.058;14.454;2024-01-06T12:39:18;35.58;;;15.07;;
77800;SDS011;66991;50.058;14.454;2024-01-06T12:41:44;40.72;;;15.43;;
77800;SDS011;66991;50.058;14.454;2024-01-06T12:44:09;44.97;;;16.80;;
77800;SDS011;66991;50.058;14.454;2024-01-06T12:46:35;40.40;;;16.75;;
77800;SDS011;66991;50.058;14.454;2024-01-06T12:49:00;36.95;;;14.15;;
77800;SDS011;66991;50.058;14.454;2024-01-06T12:51:25;35.85;;;14.23;;
77800;SDS011;66991;50.058;14.454;2024-01-06T12:53:51;32.20;;;15.27;;
77800;SDS011;66991;50.058;14.454;2024-01-06T12:56:17;41.95;;;14.55;;
77800;SDS011;66991;50.058;14.454;2024-01-06T12:58:42;36.40;;;15.00;;
77800;SDS011;66991;50.058;14.454;2024-01-06T13:01:08;34.42;;;14.40;;
77800;SDS011;66991;50.058;14.454;2024-01-06T13:03:34;35.80;;;14.38;;
77800;SDS011;66991;50.058;14.454;2024-01-06T13:06:00;43.20;;;15.13;;
77800;SDS011;66991;50.058;14.454;2024-01-06T13:08:25;36.65;;;14.10;;
77800;SDS011;66991;50.058;14.454;2024-01-06T13:10:51;41.35;;;15.27;;
77800;SDS011;66991;50.058;14.454;2024-01-06T13:13:17;33.88;;;13.88;;
77800;SDS011;66991;50.058;14.454;2024-01-06T13:15:43;32.00;;;13.77;;
77800;SDS011;66991;50.058;14.454;2024-01-06T13:18:08;32.95;;;12.90;;
77800;SDS011;66991;50.058;14.454;2024-01-06T13:20:33;39.40;;;14.75;;
77800;SDS011;66991;50.058;14.454;2024-01-06T13:22:59;33.80;;;13.10;;
77800;SDS011;66991;50.058;14.454;2024-01-06T13:25:24;28.98;;;12.70;;
77800;SDS011;66991;50.058;14.454;2024-01-06T13:27:49;28.83;;;14.25;;
77800;SDS011;66991;50.058;14.454;2024-01-06T13:30:15;37.97;;;13.30;;
77800;SDS011;66991;50.058;14.454;2024-01-06T13:32:41;34.83;;;13.27;;
77800;SDS011;66991;50.058;14.454;2024-01-06T13:35:06;30.15;;;12.73;;
77800;SDS011;66991;50.058;14.454;2024-01-06T13:37:32;33.75;;;12.38;;
77800;SDS011;66991;50.058;14.454;2024-01-06T13:39:58;28.27;;;12.75;;
77800;SDS011;66991;50.058;14.454;2024-01-06T13:42:23;29.60;;;12.25;;
77800;SDS011;66991;50.058;14.454;2024-01-06T13:44:48;29.10;;;12.00;;
77800;SDS011;66991;50.058;14.454;2024-01-06T13:47:14;31.30;;;14.93;;
77800;SDS011;66991;50.058;14.454;2024-01-06T13:49:39;31.45;;;13.02;;
77800;SDS011;66991;50.058;14.454;2024-01-06T13:52:05;31.85;;;11.40;;
77800;SDS011;66991;50.058;14.454;2024-01-06T13:54:32;33.00;;;12.35;;
77800;SDS011;66991;50.058;14.454;2024-01-06T13:56:58;32.08;;;12.27;;
77800;SDS011;66991;50.058;14.454;2024-01-06T13:59:23;28.75;;;13.02;;
77800;SDS011;66991;50.058;14.454;2024-01-06T14:01:49;23.70;;;10.60;;
77800;SDS011;66991;50.058;14.454;2024-01-06T14:04:14;27.70;;;11.73;;
77800;SDS011;66991;50.058;14.454;2024-01-06T14:06:39;29.75;;;12.15;;
77800;SDS011;66991;50.058;14.454;2024-01-06T14:09:05;28.88;;;12.18;;
77800;SDS011;66991;50.058;14.454;2024-01-06T14:11:30;34.05;;;12.50;;
77800;SDS011;66991;50.058;14.454;2024-01-06T14:13:57;29.00;;;13.10;;
77800;SDS011;66991;50.058;14.454;2024-01-06T14:16:22;26.33;;;12.13;;
77800;SDS011;66991;50.058;14.454;2024-01-06T14:18:48;34.92;;;12.45;;